sensor_id;sensor_type;location;lat;lon;timestamp;temperature;humidity
29849;DHT22;16728;50.832;5.590;2023-04-24T00:00:29;10.50;99.90
29849;DHT22;16728;50.832;5.590;2023-04-24T00:03:31;10.50;99.90
29849;DHT22;16728;50.832;5.590;2023-04-24T00:06:35;10.50;99.90
29849;DHT22;16728;50.832;5.590;2023-04-24T00:09:38;10.50;99.90
29849;DHT22;16728;50.832;5.590;2023-04-24T00:12:42;10.60;99.90
29849;DHT22;16728;50.832;5.590;2023-04-24T00:15:43;10.60;99.90
29849;DHT22;16728;50.832;5.590;2023-04-24T00:18:46;10.60;99.90
29849;DHT22;16728;50.832;5.590;2023-04-24T00:21:49;10.50;99.90
29849;DHT22;16728;50.832;5.590;2023-04-24T00:24:52;10.60;99.90
29849;DHT22;16728;50.832;5.590;2023-04-24T00:27:54;10.60;99.90
29849;DHT22;16728;50.832;5.590;2023-04-24T00:30:56;10.50;99.90
29849;DHT22;16728;50.832;5.590;2023-04-24T00:33:58;10.60;99.90
29849;DHT22;16728;50.832;5.590;2023-04-24T00:37:00;10.50;99.90
29849;DHT22;16728;50.832;5.590;2023-04-24T00:40:03;10.50;99.90
29849;DHT22;16728;50.832;5.590;2023-04-24T00:43:09;10.50;99.90
29849;DHT22;16728;50.832;5.590;2023-04-24T00:46:12;10.40;99.90
29849;DHT22;16728;50.832;5.590;2023-04-24T00:49:14;10.50;99.90
29849;DHT22;16728;50.832;5.590;2023-04-24T00:52:16;10.40;99.90
29849;DHT22;16728;50.832;5.590;2023-04-24T00:55:20;10.40;99.90
29849;DHT22;16728;50.832;5.590;2023-04-24T00:58:22;10.50;99.90
29849;DHT22;16728;50.832;5.590;2023-04-24T01:01:29;10.50;99.90
29849;DHT22;16728;50.832;5.590;2023-04-24T01:04:32;10.40;99.90
29849;DHT22;16728;50.832;5.590;2023-04-24T01:07:34;10.40;99.90
29849;DHT22;16728;50.832;5.590;2023-04-24T01:10:38;10.50;99.90
29849;DHT22;16728;50.832;5.590;2023-04-24T01:13:42;10.40;99.90
29849;DHT22;16728;50.832;5.590;2023-04-24T01:16:44;10.50;99.90
29849;DHT22;16728;50.832;5.590;2023-04-24T01:19:46;10.50;99.90
29849;DHT22;16728;50.832;5.590;2023-04-24T01:22:48;10.50;99.90
29849;DHT22;16728;50.832;5.590;2023-04-24T01:25:50;10.40;99.90
29849;DHT22;16728;50.832;5.590;2023-04-24T01:28:53;10.50;99.90
29849;DHT22;16728;50.832;5.590;2023-04-24T01:31:56;10.50;99.90
29849;DHT22;16728;50.832;5.590;2023-04-24T01:35:00;10.40;99.90
29849;DHT22;16728;50.832;5.590;2023-04-24T01:38:02;10.50;99.90
29849;DHT22;16728;50.832;5.590;2023-04-24T01:41:04;10.50;99.90
29849;DHT22;16728;50.832;5.590;2023-04-24T01:44:07;10.50;99.90
29849;DHT22;16728;50.832;5.590;2023-04-24T01:47:09;10.50;99.90
29849;DHT22;16728;50.832;5.590;2023-04-24T01:50:13;10.50;99.90
29849;DHT22;16728;50.832;5.590;2023-04-24T01:53:15;10.50;99.90
29849;DHT22;16728;50.832;5.590;2023-04-24T01:56:17;10.40;99.90
29849;DHT22;16728;50.832;5.590;2023-04-24T01:59:20;10.40;99.90
29849;DHT22;16728;50.832;5.590;2023-04-24T02:02:29;10.40;99.90
29849;DHT22;16728;50.832;5.590;2023-04-24T02:05:32;10.40;99.90
29849;DHT22;16728;50.832;5.590;2023-04-24T02:08:34;10.40;99.90
29849;DHT22;16728;50.832;5.590;2023-04-24T02:11:36;10.40;99.90
29849;DHT22;16728;50.832;5.590;2023-04-24T02:14:38;10.40;99.90
29849;DHT22;16728;50.832;5.590;2023-04-24T02:17:40;10.40;99.90
29849;DHT22;16728;50.832;5.590;2023-04-24T02:20:42;10.40;99.90
29849;DHT22;16728;50.832;5.590;2023-04-24T02:23:43;10.40;99.90
29849;DHT22;16728;50.832;5.590;2023-04-24T02:26:46;10.50;99.90
29849;DHT22;16728;50.832;5.590;2023-04-24T02:29:48;10.40;99.90
29849;DHT22;16728;50.832;5.590;2023-04-24T02:32:50;10.40;99.90
29849;DHT22;16728;50.832;5.590;2023-04-24T02:35:52;10.40;99.90
29849;DHT22;16728;50.832;5.590;2023-04-24T02:38:58;10.30;99.90
29849;DHT22;16728;50.832;5.590;2023-04-24T02:42:00;10.30;99.90
29849;DHT22;16728;50.832;5.590;2023-04-24T02:45:04;10.30;99.90
29849;DHT22;16728;50.832;5.590;2023-04-24T02:48:06;10.30;99.90
29849;DHT22;16728;50.832;5.590;2023-04-24T02:51:08;10.30;99.90
29849;DHT22;16728;50.832;5.590;2023-04-24T02:54:10;10.30;99.90
29849;DHT22;16728;50.832;5.590;2023-04-24T02:57:12;10.30;99.90
29849;DHT22;16728;50.832;5.590;2023-04-24T03:00:14;10.30;99.90
29849;DHT22;16728;50.832;5.590;2023-04-24T03:03:17;10.20;99.90
29849;DHT22;16728;50.832;5.590;2023-04-24T03:06:19;10.20;99.90
29849;DHT22;16728;50.832;5.590;2023-04-24T03:09:27;10.10;99.90
29849;DHT22;16728;50.832;5.590;2023-04-24T03:12:29;10.10;99.90
29849;DHT22;16728;50.832;5.590;2023-04-24T03:15:30;10.10;99.90
29849;DHT22;16728;50.832;5.590;2023-04-24T03:18:33;10.10;99.90
29849;DHT22;16728;50.832;5.590;2023-04-24T03:21:39;10.00;99.90
29849;DHT22;16728;50.832;5.590;2023-04-24T03:24:44;10.00;99.90
29849;DHT22;16728;50.832;5.590;2023-04-24T03:27:46;9.90;99.90
29849;DHT22;16728;50.832;5.590;2023-04-24T03:30:48;10.00;99.90
29849;DHT22;16728;50.832;5.590;2023-04-24T03:33:50;9.90;99.90
29849;DHT22;16728;50.832;5.590;2023-04-24T03:36:52;10.00;99.90
29849;DHT22;16728;50.832;5.590;2023-04-24T03:39:55;10.00;99.90
29849;DHT22;16728;50.832;5.590;2023-04-24T03:42:57;9.90;99.90
29849;DHT22;16728;50.832;5.590;2023-04-24T03:46:00;9.80;99.90
29849;DHT22;16728;50.832;5.590;2023-04-24T03:49:02;9.80;99.90
29849;DHT22;16728;50.832;5.590;2023-04-24T03:52:04;9.70;99.90
29849;DHT22;16728;50.832;5.590;2023-04-24T03:55:07;9.80;99.90
29849;DHT22;16728;50.832;5.590;2023-04-24T03:58:09;9.70;99.90
29849;DHT22;16728;50.832;5.590;2023-04-24T04:01:11;9.70;99.90
29849;DHT22;16728;50.832;5.590;2023-04-24T04:04:15;9.70;99.90
29849;DHT22;16728;50.832;5.590;2023-04-24T04:07:17;9.70;99.90
29849;DHT22;16728;50.832;5.590;2023-04-24T04:10:23;9.70;99.90
29849;DHT22;16728;50.832;5.590;2023-04-24T04:13:25;9.60;99.90
29849;DHT22;16728;50.832;5.590;2023-04-24T04:16:27;9.60;99.90
29849;DHT22;16728;50.832;5.590;2023-04-24T04:19:29;9.60;99.90
29849;DHT22;16728;50.832;5.590;2023-04-24T04:22:31;9.60;99.90
29849;DHT22;16728;50.832;5.590;2023-04-24T04:25:33;9.50;99.90
29849;DHT22;16728;50.832;5.590;2023-04-24T04:28:35;9.60;99.90
29849;DHT22;16728;50.832;5.590;2023-04-24T04:31:36;9.50;99.90
29849;DHT22;16728;50.832;5.590;2023-04-24T04:34:38;9.50;99.90
29849;DHT22;16728;50.832;5.590;2023-04-24T04:37:41;9.60;99.90
29849;DHT22;16728;50.832;5.590;2023-04-24T04:40:43;9.50;99.90
29849;DHT22;16728;50.832;5.590;2023-04-24T04:43:45;9.50;99.90
29849;DHT22;16728;50.832;5.590;2023-04-24T04:46:49;9.50;99.90
29849;DHT22;16728;50.832;5.590;2023-04-24T04:49:51;9.50;99.90
29849;DHT22;16728;50.832;5.590;2023-04-24T04:52:55;9.50;99.90
29849;DHT22;16728;50.832;5.590;2023-04-24T04:55:57;9.40;99.90
29849;DHT22;16728;50.832;5.590;2023-04-24T04:59:00;9.40;99.90
29849;DHT22;16728;50.832;5.590;2023-04-24T05:02:02;9.40;99.90
29849;DHT22;16728;50.832;5.590;2023-04-24T05:05:08;9.40;99.90
29849;DHT22;16728;50.832;5.590;2023-04-24T05:08:10;9.40;99.90
29849;DHT22;16728;50.832;5.590;2023-04-24T05:11:27;9.30;99.90
29849;DHT22;16728;50.832;5.590;2023-04-24T05:14:29;9.40;99.90
29849;DHT22;16728;50.832;5.590;2023-04-24T05:17:31;9.40;99.90
29849;DHT22;16728;50.832;5.590;2023-04-24T05:20:33;9.30;99.90
29849;DHT22;16728;50.832;5.590;2023-04-24T05:23:35;9.30;99.90
29849;DHT22;16728;50.832;5.590;2023-04-24T05:26:37;9.30;99.90
29849;DHT22;16728;50.832;5.590;2023-04-24T05:29:39;9.40;99.90
29849;DHT22;16728;50.832;5.590;2023-04-24T05:32:42;9.40;99.90
29849;DHT22;16728;50.832;5.590;2023-04-24T05:35:44;9.40;99.90
29849;DHT22;16728;50.832;5.590;2023-04-24T05:38:48;9.40;99.90
29849;DHT22;16728;50.832;5.590;2023-04-24T05:41:50;9.40;99.90
29849;DHT22;16728;50.832;5.590;2023-04-24T05:44:52;9.40;99.90
29849;DHT22;16728;50.832;5.590;2023-04-24T05:47:58;9.40;99.90
29849;DHT22;16728;50.832;5.590;2023-04-24T05:51:00;9.40;99.90
29849;DHT22;16728;50.832;5.590;2023-04-24T05:54:03;9.40;99.90
29849;DHT22;16728;50.832;5.590;2023-04-24T05:57:05;9.40;99.90
29849;DHT22;16728;50.832;5.590;2023-04-24T06:00:11;9.40;99.90
29849;DHT22;16728;50.832;5.590;2023-04-24T06:03:13;9.50;99.90
29849;DHT22;16728;50.832;5.590;2023-04-24T06:06:16;9.40;99.90
29849;DHT22;16728;50.832;5.590;2023-04-24T06:09:18;9.40;99.90
29849;DHT22;16728;50.832;5.590;2023-04-24T06:12:20;9.40;99.90
29849;DHT22;16728;50.832;5.590;2023-04-24T06:15:22;9.40;99.90
29849;DHT22;16728;50.832;5.590;2023-04-24T06:18:24;9.50;99.90
29849;DHT22;16728;50.832;5.590;2023-04-24T06:21:25;9.40;99.90
29849;DHT22;16728;50.832;5.590;2023-04-24T06:24:28;9.30;99.90
29849;DHT22;16728;50.832;5.590;2023-04-24T06:27:30;9.40;99.90
29849;DHT22;16728;50.832;5.590;2023-04-24T06:30:31;9.30;99.90
29849;DHT22;16728;50.832;5.590;2023-04-24T06:33:33;9.30;99.90
29849;DHT22;16728;50.832;5.590;2023-04-24T06:36:37;9.30;99.90
29849;DHT22;16728;50.832;5.590;2023-04-24T06:39:38;9.30;99.90
29849;DHT22;16728;50.832;5.590;2023-04-24T06:42:42;9.40;99.90
29849;DHT22;16728;50.832;5.590;2023-04-24T06:45:44;9.40;99.90
29849;DHT22;16728;50.832;5.590;2023-04-24T06:48:47;9.40;99.90
29849;DHT22;16728;50.832;5.590;2023-04-24T06:51:49;9.40;99.90
29849;DHT22;16728;50.832;5.590;2023-04-24T06:54:51;9.30;99.90
29849;DHT22;16728;50.832;5.590;2023-04-24T06:57:53;9.30;99.90
29849;DHT22;16728;50.832;5.590;2023-04-24T07:00:55;9.20;99.90
29849;DHT22;16728;50.832;5.590;2023-04-24T07:03:57;9.20;99.90
29849;DHT22;16728;50.832;5.590;2023-04-24T07:07:00;9.10;99.90
29849;DHT22;16728;50.832;5.590;2023-04-24T07:10:02;9.10;99.90
29849;DHT22;16728;50.832;5.590;2023-04-24T07:13:05;9.20;99.90
29849;DHT22;16728;50.832;5.590;2023-04-24T07:16:08;9.10;99.90
29849;DHT22;16728;50.832;5.590;2023-04-24T07:19:13;9.20;99.90
29849;DHT22;16728;50.832;5.590;2023-04-24T07:22:15;9.20;99.90
29849;DHT22;16728;50.832;5.590;2023-04-24T07:25:18;9.20;99.90
29849;DHT22;16728;50.832;5.590;2023-04-24T07:28:20;9.20;99.90
29849;DHT22;16728;50.832;5.590;2023-04-24T07:31:22;9.20;99.90
29849;DHT22;16728;50.832;5.590;2023-04-24T07:34:24;9.30;99.90
29849;DHT22;16728;50.832;5.590;2023-04-24T07:37:28;9.30;99.90
29849;DHT22;16728;50.832;5.590;2023-04-24T07:40:30;9.30;99.90
29849;DHT22;16728;50.832;5.590;2023-04-24T07:43:32;9.40;99.90
29849;DHT22;16728;50.832;5.590;2023-04-24T07:46:34;9.40;99.90
29849;DHT22;16728;50.832;5.590;2023-04-24T07:49:36;9.40;99.90
29849;DHT22;16728;50.832;5.590;2023-04-24T07:52:38;9.40;99.90
29849;DHT22;16728;50.832;5.590;2023-04-24T07:55:40;9.40;99.90
29849;DHT22;16728;50.832;5.590;2023-04-24T07:58:42;9.40;99.90
29849;DHT22;16728;50.832;5.590;2023-04-24T08:01:44;9.40;99.90
29849;DHT22;16728;50.832;5.590;2023-04-24T08:04:53;9.40;99.90
29849;DHT22;16728;50.832;5.590;2023-04-24T08:07:56;9.40;99.90
29849;DHT22;16728;50.832;5.590;2023-04-24T08:10:58;9.40;99.90
29849;DHT22;16728;50.832;5.590;2023-04-24T08:14:01;9.40;99.90
29849;DHT22;16728;50.832;5.590;2023-04-24T08:17:03;9.40;99.90
29849;DHT22;16728;50.832;5.590;2023-04-24T08:20:07;9.50;99.90
29849;DHT22;16728;50.832;5.590;2023-04-24T08:23:14;9.50;99.90
29849;DHT22;16728;50.832;5.590;2023-04-24T08:26:18;9.50;99.90
29849;DHT22;16728;50.832;5.590;2023-04-24T08:29:20;9.40;99.90
29849;DHT22;16728;50.832;5.590;2023-04-24T08:32:27;9.40;99.90
29849;DHT22;16728;50.832;5.590;2023-04-24T08:35:32;9.40;99.90
29849;DHT22;16728;50.832;5.590;2023-04-24T08:38:36;9.40;99.90
29849;DHT22;16728;50.832;5.590;2023-04-24T08:41:38;9.50;99.90
29849;DHT22;16728;50.832;5.590;2023-04-24T08:44:41;9.40;99.90
29849;DHT22;16728;50.832;5.590;2023-04-24T08:47:43;9.40;99.90
29849;DHT22;16728;50.832;5.590;2023-04-24T08:50:47;9.50;99.90
29849;DHT22;16728;50.832;5.590;2023-04-24T08:53:51;9.60;99.90
29849;DHT22;16728;50.832;5.590;2023-04-24T08:57:02;9.60;99.90
29849;DHT22;16728;50.832;5.590;2023-04-24T09:00:05;9.60;99.90
29849;DHT22;16728;50.832;5.590;2023-04-24T09:03:16;9.70;99.90
29849;DHT22;16728;50.832;5.590;2023-04-24T09:06:19;9.80;99.90
29849;DHT22;16728;50.832;5.590;2023-04-24T09:09:25;9.90;99.90
29849;DHT22;16728;50.832;5.590;2023-04-24T09:12:27;9.90;99.90
29849;DHT22;16728;50.832;5.590;2023-04-24T09:15:36;9.90;99.90
29849;DHT22;16728;50.832;5.590;2023-04-24T09:18:38;9.90;99.90
29849;DHT22;16728;50.832;5.590;2023-04-24T09:21:40;9.90;99.90
29849;DHT22;16728;50.832;5.590;2023-04-24T09:24:45;9.90;99.90
29849;DHT22;16728;50.832;5.590;2023-04-24T09:27:48;9.90;99.90
29849;DHT22;16728;50.832;5.590;2023-04-24T09:31:02;9.90;99.90
29849;DHT22;16728;50.832;5.590;2023-04-24T09:34:05;9.90;99.90
29849;DHT22;16728;50.832;5.590;2023-04-24T09:37:09;9.90;99.90
29849;DHT22;16728;50.832;5.590;2023-04-24T09:40:19;10.00;99.90
29849;DHT22;16728;50.832;5.590;2023-04-24T09:43:22;10.20;99.90
29849;DHT22;16728;50.832;5.590;2023-04-24T09:46:30;10.30;99.90
29849;DHT22;16728;50.832;5.590;2023-04-24T09:49:35;10.50;99.90
29849;DHT22;16728;50.832;5.590;2023-04-24T09:52:46;10.60;99.90
29849;DHT22;16728;50.832;5.590;2023-04-24T09:55:48;10.80;99.90
29849;DHT22;16728;50.832;5.590;2023-04-24T09:58:55;11.00;99.90
29849;DHT22;16728;50.832;5.590;2023-04-24T10:02:17;11.10;99.90
29849;DHT22;16728;50.832;5.590;2023-04-24T10:05:28;11.10;99.90
29849;DHT22;16728;50.832;5.590;2023-04-24T10:08:34;11.20;99.90
29849;DHT22;16728;50.832;5.590;2023-04-24T10:11:41;11.30;99.90
29849;DHT22;16728;50.832;5.590;2023-04-24T10:14:45;11.30;99.90
29849;DHT22;16728;50.832;5.590;2023-04-24T10:17:53;11.20;99.90
29849;DHT22;16728;50.832;5.590;2023-04-24T10:20:56;11.30;99.90
29849;DHT22;16728;50.832;5.590;2023-04-24T10:24:00;11.30;99.90
29849;DHT22;16728;50.832;5.590;2023-04-24T10:27:05;11.20;99.90
29849;DHT22;16728;50.832;5.590;2023-04-24T10:30:08;11.00;99.90
29849;DHT22;16728;50.832;5.590;2023-04-24T10:33:10;10.80;99.90
29849;DHT22;16728;50.832;5.590;2023-04-24T10:36:14;10.70;99.90
29849;DHT22;16728;50.832;5.590;2023-04-24T10:39:18;10.70;99.90
29849;DHT22;16728;50.832;5.590;2023-04-24T10:42:28;10.70;99.90
29849;DHT22;16728;50.832;5.590;2023-04-24T10:45:30;10.80;99.90
29849;DHT22;16728;50.832;5.590;2023-04-24T10:48:33;10.90;99.90
29849;DHT22;16728;50.832;5.590;2023-04-24T10:51:48;10.90;99.90
29849;DHT22;16728;50.832;5.590;2023-04-24T10:54:50;11.10;99.90
29849;DHT22;16728;50.832;5.590;2023-04-24T10:58:02;11.10;99.90
29849;DHT22;16728;50.832;5.590;2023-04-24T11:01:07;11.10;99.90
29849;DHT22;16728;50.832;5.590;2023-04-24T11:04:10;11.10;99.90
29849;DHT22;16728;50.832;5.590;2023-04-24T11:07:12;11.10;99.90
29849;DHT22;16728;50.832;5.590;2023-04-24T11:10:26;11.20;99.90
29849;DHT22;16728;50.832;5.590;2023-04-24T11:16:56;11.20;99.90
29849;DHT22;16728;50.832;5.590;2023-04-24T11:20:04;11.30;99.90
29849;DHT22;16728;50.832;5.590;2023-04-24T11:23:36;11.50;99.90
29849;DHT22;16728;50.832;5.590;2023-04-24T11:26:38;11.80;99.90
29849;DHT22;16728;50.832;5.590;2023-04-24T11:33:04;12.10;99.90
29849;DHT22;16728;50.832;5.590;2023-04-24T11:36:07;12.00;99.90
29849;DHT22;16728;50.832;5.590;2023-04-24T11:39:11;12.10;99.90
29849;DHT22;16728;50.832;5.590;2023-04-24T11:42:16;12.00;99.90
29849;DHT22;16728;50.832;5.590;2023-04-24T11:45:25;12.00;99.90
29849;DHT22;16728;50.832;5.590;2023-04-24T11:48:27;11.90;99.90
29849;DHT22;16728;50.832;5.590;2023-04-24T11:51:30;11.90;99.90
29849;DHT22;16728;50.832;5.590;2023-04-24T11:54:51;11.90;99.90
29849;DHT22;16728;50.832;5.590;2023-04-24T11:57:57;12.00;99.90
29849;DHT22;16728;50.832;5.590;2023-04-24T12:00:59;12.00;99.90
29849;DHT22;16728;50.832;5.590;2023-04-24T12:04:02;11.90;99.90
29849;DHT22;16728;50.832;5.590;2023-04-24T12:07:04;11.90;99.90
29849;DHT22;16728;50.832;5.590;2023-04-24T12:10:07;11.90;99.90
29849;DHT22;16728;50.832;5.590;2023-04-24T12:13:09;11.90;99.90
29849;DHT22;16728;50.832;5.590;2023-04-24T12:16:13;11.80;99.90
29849;DHT22;16728;50.832;5.590;2023-04-24T12:19:21;11.80;99.90
29849;DHT22;16728;50.832;5.590;2023-04-24T12:22:24;11.70;99.90
29849;DHT22;16728;50.832;5.590;2023-04-24T12:25:31;11.70;99.90
29849;DHT22;16728;50.832;5.590;2023-04-24T12:28:38;11.60;99.90
29849;DHT22;16728;50.832;5.590;2023-04-24T12:31:40;11.70;99.90
29849;DHT22;16728;50.832;5.590;2023-04-24T12:34:43;11.70;99.90
29849;DHT22;16728;50.832;5.590;2023-04-24T12:37:45;11.80;99.90
29849;DHT22;16728;50.832;5.590;2023-04-24T12:41:00;11.90;99.90
29849;DHT22;16728;50.832;5.590;2023-04-24T12:44:02;11.90;99.90
29849;DHT22;16728;50.832;5.590;2023-04-24T12:47:10;11.90;99.90
29849;DHT22;16728;50.832;5.590;2023-04-24T12:50:14;12.00;99.90
29849;DHT22;16728;50.832;5.590;2023-04-24T12:53:18;12.00;99.90
29849;DHT22;16728;50.832;5.590;2023-04-24T12:56:20;11.90;99.90
29849;DHT22;16728;50.832;5.590;2023-04-24T12:59:27;12.00;99.90
29849;DHT22;16728;50.832;5.590;2023-04-24T13:02:30;12.00;99.90
29849;DHT22;16728;50.832;5.590;2023-04-24T13:05:32;12.10;99.90
29849;DHT22;16728;50.832;5.590;2023-04-24T13:08:34;12.10;99.90
29849;DHT22;16728;50.832;5.590;2023-04-24T13:11:36;12.10;99.90
29849;DHT22;16728;50.832;5.590;2023-04-24T13:14:38;12.20;99.90
29849;DHT22;16728;50.832;5.590;2023-04-24T13:17:40;12.30;99.90
29849;DHT22;16728;50.832;5.590;2023-04-24T13:20:42;12.40;99.90
29849;DHT22;16728;50.832;5.590;2023-04-24T13:23:46;12.40;99.90
29849;DHT22;16728;50.832;5.590;2023-04-24T13:26:48;12.40;99.90
29849;DHT22;16728;50.832;5.590;2023-04-24T13:29:50;12.50;99.90
29849;DHT22;16728;50.832;5.590;2023-04-24T13:32:52;12.50;99.90
29849;DHT22;16728;50.832;5.590;2023-04-24T13:35:59;12.60;99.90
29849;DHT22;16728;50.832;5.590;2023-04-24T13:39:02;12.60;99.90
29849;DHT22;16728;50.832;5.590;2023-04-24T13:42:06;12.60;99.90
29849;DHT22;16728;50.832;5.590;2023-04-24T13:45:08;12.60;99.90
29849;DHT22;16728;50.832;5.590;2023-04-24T13:48:13;12.60;99.90
29849;DHT22;16728;50.832;5.590;2023-04-24T13:51:17;12.60;99.90
29849;DHT22;16728;50.832;5.590;2023-04-24T13:54:19;12.80;99.90
29849;DHT22;16728;50.832;5.590;2023-04-24T13:57:21;12.80;99.90
29849;DHT22;16728;50.832;5.590;2023-04-24T14:00:23;12.90;99.90
29849;DHT22;16728;50.832;5.590;2023-04-24T14:03:25;12.90;99.90
29849;DHT22;16728;50.832;5.590;2023-04-24T14:06:28;12.90;99.90
29849;DHT22;16728;50.832;5.590;2023-04-24T14:09:30;13.00;99.90
29849;DHT22;16728;50.832;5.590;2023-04-24T14:12:34;12.80;99.90
29849;DHT22;16728;50.832;5.590;2023-04-24T14:15:36;12.70;99.90
29849;DHT22;16728;50.832;5.590;2023-04-24T14:18:38;12.70;99.90
29849;DHT22;16728;50.832;5.590;2023-04-24T14:21:40;12.60;99.90
29849;DHT22;16728;50.832;5.590;2023-04-24T14:24:47;12.70;99.90
29849;DHT22;16728;50.832;5.590;2023-04-24T14:27:49;12.80;99.90
29849;DHT22;16728;50.832;5.590;2023-04-24T14:30:52;12.70;99.90
29849;DHT22;16728;50.832;5.590;2023-04-24T14:33:54;12.70;99.90
29849;DHT22;16728;50.832;5.590;2023-04-24T14:36:56;12.70;99.90
29849;DHT22;16728;50.832;5.590;2023-04-24T14:40:00;12.80;99.90
29849;DHT22;16728;50.832;5.590;2023-04-24T14:43:22;12.70;99.90
29849;DHT22;16728;50.832;5.590;2023-04-24T14:46:24;12.80;99.90
29849;DHT22;16728;50.832;5.590;2023-04-24T14:49:26;12.80;99.90
29849;DHT22;16728;50.832;5.590;2023-04-24T14:52:28;12.80;99.90
29849;DHT22;16728;50.832;5.590;2023-04-24T14:55:31;12.70;99.90
29849;DHT22;16728;50.832;5.590;2023-04-24T14:58:34;12.70;99.90
29849;DHT22;16728;50.832;5.590;2023-04-24T15:01:39;12.70;99.90
29849;DHT22;16728;50.832;5.590;2023-04-24T15:04:41;12.70;99.90
29849;DHT22;16728;50.832;5.590;2023-04-24T15:07:43;12.70;99.90
29849;DHT22;16728;50.832;5.590;2023-04-24T15:10:47;12.60;99.90
29849;DHT22;16728;50.832;5.590;2023-04-24T15:13:51;12.60;99.90
29849;DHT22;16728;50.832;5.590;2023-04-24T15:16:52;12.60;99.90
29849;DHT22;16728;50.832;5.590;2023-04-24T15:20:00;12.60;99.90
29849;DHT22;16728;50.832;5.590;2023-04-24T15:23:02;12.50;99.90
29849;DHT22;16728;50.832;5.590;2023-04-24T15:26:06;12.50;99.90
29849;DHT22;16728;50.832;5.590;2023-04-24T15:29:08;12.40;99.90
29849;DHT22;16728;50.832;5.590;2023-04-24T15:32:11;12.50;99.90
29849;DHT22;16728;50.832;5.590;2023-04-24T15:35:13;12.40;99.90
29849;DHT22;16728;50.832;5.590;2023-04-24T15:38:15;12.50;99.90
29849;DHT22;16728;50.832;5.590;2023-04-24T15:41:18;12.50;99.90
29849;DHT22;16728;50.832;5.590;2023-04-24T15:44:21;12.50;99.90
29849;DHT22;16728;50.832;5.590;2023-04-24T15:47:24;12.50;99.90
29849;DHT22;16728;50.832;5.590;2023-04-24T15:50:28;12.50;99.90
29849;DHT22;16728;50.832;5.590;2023-04-24T15:53:30;12.50;99.90
29849;DHT22;16728;50.832;5.590;2023-04-24T15:56:33;12.40;99.90
29849;DHT22;16728;50.832;5.590;2023-04-24T15:59:35;12.50;99.90
29849;DHT22;16728;50.832;5.590;2023-04-24T16:02:40;12.50;99.90
29849;DHT22;16728;50.832;5.590;2023-04-24T16:05:43;12.50;99.90
29849;DHT22;16728;50.832;5.590;2023-04-24T16:08:49;12.50;99.90
29849;DHT22;16728;50.832;5.590;2023-04-24T16:11:51;12.60;99.90
29849;DHT22;16728;50.832;5.590;2023-04-24T16:14:54;12.50;99.90
29849;DHT22;16728;50.832;5.590;2023-04-24T16:17:56;12.50;99.90
29849;DHT22;16728;50.832;5.590;2023-04-24T16:21:04;12.40;99.90
29849;DHT22;16728;50.832;5.590;2023-04-24T16:24:06;12.40;99.90
29849;DHT22;16728;50.832;5.590;2023-04-24T16:27:07;12.50;99.90
29849;DHT22;16728;50.832;5.590;2023-04-24T16:30:10;12.40;99.90
29849;DHT22;16728;50.832;5.590;2023-04-24T16:33:11;12.50;99.90
29849;DHT22;16728;50.832;5.590;2023-04-24T16:36:14;12.50;99.90
29849;DHT22;16728;50.832;5.590;2023-04-24T16:39:16;12.40;99.90
29849;DHT22;16728;50.832;5.590;2023-04-24T16:42:18;12.40;99.90
29849;DHT22;16728;50.832;5.590;2023-04-24T16:45:21;12.40;99.90
29849;DHT22;16728;50.832;5.590;2023-04-24T16:48:23;12.30;99.90
29849;DHT22;16728;50.832;5.590;2023-04-24T16:51:26;12.30;99.90
29849;DHT22;16728;50.832;5.590;2023-04-24T16:54:28;12.20;99.90
29849;DHT22;16728;50.832;5.590;2023-04-24T16:57:31;12.20;99.90
29849;DHT22;16728;50.832;5.590;2023-04-24T17:00:33;12.10;99.90
29849;DHT22;16728;50.832;5.590;2023-04-24T17:03:39;12.10;99.90
29849;DHT22;16728;50.832;5.590;2023-04-24T17:06:42;12.20;99.90
29849;DHT22;16728;50.832;5.590;2023-04-24T17:09:44;12.20;99.90
29849;DHT22;16728;50.832;5.590;2023-04-24T17:12:46;12.20;99.90
29849;DHT22;16728;50.832;5.590;2023-04-24T17:15:52;12.10;99.90
29849;DHT22;16728;50.832;5.590;2023-04-24T17:18:54;12.10;99.90
29849;DHT22;16728;50.832;5.590;2023-04-24T17:21:56;12.00;99.90
29849;DHT22;16728;50.832;5.590;2023-04-24T17:24:58;12.00;99.90
29849;DHT22;16728;50.832;5.590;2023-04-24T17:28:01;11.90;99.90
29849;DHT22;16728;50.832;5.590;2023-04-24T17:31:04;11.90;99.90
29849;DHT22;16728;50.832;5.590;2023-04-24T17:34:05;11.90;99.90
29849;DHT22;16728;50.832;5.590;2023-04-24T17:37:09;11.80;99.90
29849;DHT22;16728;50.832;5.590;2023-04-24T17:40:11;11.80;99.90
29849;DHT22;16728;50.832;5.590;2023-04-24T17:43:13;11.80;99.90
29849;DHT22;16728;50.832;5.590;2023-04-24T17:46:19;11.80;99.90
29849;DHT22;16728;50.832;5.590;2023-04-24T17:49:22;11.80;99.90
29849;DHT22;16728;50.832;5.590;2023-04-24T17:52:24;11.80;99.90
29849;DHT22;16728;50.832;5.590;2023-04-24T17:55:26;11.80;99.90
29849;DHT22;16728;50.832;5.590;2023-04-24T17:58:29;11.80;99.90
29849;DHT22;16728;50.832;5.590;2023-04-24T18:01:31;11.80;99.90
29849;DHT22;16728;50.832;5.590;2023-04-24T18:04:35;11.80;99.90
29849;DHT22;16728;50.832;5.590;2023-04-24T18:07:39;11.70;99.90
29849;DHT22;16728;50.832;5.590;2023-04-24T18:10:43;11.70;99.90
29849;DHT22;16728;50.832;5.590;2023-04-24T18:13:45;11.60;99.90
29849;DHT22;16728;50.832;5.590;2023-04-24T18:16:47;11.60;99.90
29849;DHT22;16728;50.832;5.590;2023-04-24T18:19:49;11.60;99.90
29849;DHT22;16728;50.832;5.590;2023-04-24T18:22:51;11.60;99.90
29849;DHT22;16728;50.832;5.590;2023-04-24T18:25:54;11.60;99.90
29849;DHT22;16728;50.832;5.590;2023-04-24T18:28:56;11.50;99.90
29849;DHT22;16728;50.832;5.590;2023-04-24T18:31:59;11.50;99.90
29849;DHT22;16728;50.832;5.590;2023-04-24T18:35:04;11.50;99.90
29849;DHT22;16728;50.832;5.590;2023-04-24T18:38:07;11.40;99.90
29849;DHT22;16728;50.832;5.590;2023-04-24T18:41:09;11.40;99.90
29849;DHT22;16728;50.832;5.590;2023-04-24T18:44:10;11.40;99.90
29849;DHT22;16728;50.832;5.590;2023-04-24T18:47:13;11.40;99.90
29849;DHT22;16728;50.832;5.590;2023-04-24T18:50:15;11.40;99.90
29849;DHT22;16728;50.832;5.590;2023-04-24T18:53:18;11.30;99.90
29849;DHT22;16728;50.832;5.590;2023-04-24T18:56:19;11.30;99.90
29849;DHT22;16728;50.832;5.590;2023-04-24T18:59:22;11.30;99.90
29849;DHT22;16728;50.832;5.590;2023-04-24T19:02:24;11.30;99.90
29849;DHT22;16728;50.832;5.590;2023-04-24T19:05:31;11.20;99.90
29849;DHT22;16728;50.832;5.590;2023-04-24T19:08:35;11.10;99.90
29849;DHT22;16728;50.832;5.590;2023-04-24T19:11:50;11.10;99.90
29849;DHT22;16728;50.832;5.590;2023-04-24T19:14:52;11.00;99.90
29849;DHT22;16728;50.832;5.590;2023-04-24T19:18:01;11.00;99.90
29849;DHT22;16728;50.832;5.590;2023-04-24T19:21:04;10.90;99.90
29849;DHT22;16728;50.832;5.590;2023-04-24T19:24:06;10.90;99.90
29849;DHT22;16728;50.832;5.590;2023-04-24T19:27:10;11.00;99.90
29849;DHT22;16728;50.832;5.590;2023-04-24T19:30:13;10.90;99.90